createdAt,value
2022-08-03T00:00:35.269Z,47.39
2022-08-03T00:02:37.263Z,48.69
2022-08-03T00:04:39.263Z,47.79
2022-08-03T00:06:41.242Z,48.30
2022-08-03T00:08:43.298Z,47.74
2022-08-03T00:10:45.322Z,48.84
2022-08-03T00:12:47.373Z,47.97
2022-08-03T00:14:49.367Z,48.47
2022-08-03T00:16:51.349Z,48.53
2022-08-03T00:18:53.411Z,49.45
2022-08-03T00:20:55.465Z,48.83
2022-08-03T00:22:57.502Z,49.00
2022-08-03T00:25:00.214Z,50.42
2022-08-03T00:27:02.199Z,50.88
2022-08-03T00:29:04.306Z,50.43
2022-08-03T00:31:06.990Z,50.25
2022-08-03T00:33:10.765Z,50.50
2022-08-03T00:35:27.341Z,51.81
2022-08-03T00:37:41.563Z,50.56
2022-08-03T00:39:45.990Z,51.84
2022-08-03T00:41:48.888Z,50.04
2022-08-03T00:43:50.906Z,50.41
2022-08-03T00:45:52.954Z,50.96
2022-08-03T00:47:55.087Z,50.47
2022-08-03T00:49:57.088Z,50.46
2022-08-03T00:52:00.739Z,51.73
2022-08-03T00:54:10.691Z,50.22
2022-08-03T00:56:16.241Z,53.02
2022-08-03T00:58:18.298Z,51.58
2022-08-03T01:00:27.045Z,52.42
2022-08-03T01:02:29.366Z,51.29
2022-08-03T01:04:31.374Z,51.20
2022-08-03T01:07:11.590Z,53.79
2022-08-03T01:09:25.842Z,55.06
2022-08-03T01:12:01.219Z,61.62
2022-08-03T01:14:18.361Z,59.97
2022-08-03T01:16:36.722Z,60.14
2022-08-03T01:18:53.531Z,60.30
2022-08-03T01:20:57.596Z,60.93
2022-08-03T01:23:29.295Z,62.84
2022-08-03T01:25:56.595Z,63.75
2022-08-03T01:28:32.604Z,63.26
2022-08-03T01:30:35.402Z,60.41
2022-08-03T01:32:53.494Z,59.46
2022-08-03T01:35:13.616Z,60.94
2022-08-03T01:37:21.913Z,62.32
2022-08-03T01:39:23.982Z,59.31
2022-08-03T01:41:34.204Z,62.50
2022-08-03T01:44:26.515Z,60.40
2022-08-03T01:45:58.238Z,60.51
2022-08-03T01:48:00.278Z,62.31
2022-08-03T01:50:02.387Z,61.07
2022-08-03T01:52:05.461Z,61.21
2022-08-03T01:54:07.656Z,60.04
2022-08-03T01:56:09.706Z,60.72
2022-08-03T01:58:11.715Z,61.70
2022-08-03T02:00:14.784Z,60.40
2022-08-03T02:02:33.162Z,60.96
2022-08-03T02:04:36.305Z,60.02
2022-08-03T02:07:01.755Z,60.19
2022-08-03T02:09:00.815Z,61.26
2022-08-03T02:11:02.803Z,59.16
2022-08-03T02:13:06.882Z,60.20
2022-08-03T02:15:09.228Z,60.01
2022-08-03T02:17:12.160Z,59.08
2022-08-03T02:19:14.642Z,59.72
2022-08-03T02:21:48.254Z,59.57
2022-08-03T02:23:39.164Z,59.95
2022-08-03T02:25:44.813Z,59.82
2022-08-03T02:28:08.581Z,61.12
2022-08-03T02:30:12.522Z,59.92
2022-08-03T02:32:17.901Z,59.99
2022-08-03T02:34:21.261Z,59.22
2022-08-03T02:36:26.437Z,61.02
2022-08-03T02:38:32.096Z,61.06
2022-08-03T02:40:34.163Z,59.93
2022-08-03T02:42:36.386Z,60.60
2022-08-03T02:44:38.376Z,61.36
2022-08-03T02:46:44.715Z,61.75
2022-08-03T02:48:47.666Z,60.66
2022-08-03T02:50:52.299Z,62.37
2022-08-03T02:52:54.309Z,60.74
2022-08-03T02:55:01.234Z,62.86
2022-08-03T02:57:03.322Z,61.28
2022-08-03T02:59:05.511Z,61.16
2022-08-03T03:01:07.598Z,61.33
2022-08-03T03:03:09.660Z,63.36
2022-08-03T03:05:52.355Z,63.02
2022-08-03T03:07:39.131Z,62.28
2022-08-03T03:09:54.471Z,62.65
2022-08-03T03:11:56.458Z,62.32
2022-08-03T03:13:58.549Z,62.35
2022-08-03T03:16:01.729Z,63.37
2022-08-03T03:18:03.890Z,62.71
2022-08-03T03:20:07.631Z,62.62
2022-08-03T03:22:09.698Z,63.34
2022-08-03T03:24:11.746Z,63.33
2022-08-03T03:26:14.798Z,63.30
2022-08-03T03:28:16.887Z,63.20
2022-08-03T03:30:18.913Z,64.40
2022-08-03T03:32:20.893Z,63.33
2022-08-03T03:34:22.888Z,63.15
2022-08-03T03:36:25.794Z,64.32
2022-08-03T03:38:28.135Z,64.29
2022-08-03T03:40:30.157Z,64.24
2022-08-03T03:42:32.319Z,64.13
2022-08-03T03:44:34.315Z,64.40
2022-08-03T03:46:36.294Z,63.38
2022-08-03T03:48:39.024Z,63.46
2022-08-03T03:50:43.937Z,63.70
2022-08-03T03:52:45.939Z,65.27
2022-08-03T03:54:47.915Z,64.57
2022-08-03T03:56:49.912Z,64.85
2022-08-03T03:58:52.059Z,63.83
2022-08-03T04:00:54.276Z,63.79
2022-08-03T04:02:56.636Z,63.35
2022-08-03T04:05:17.378Z,63.86
2022-08-03T04:07:38.344Z,63.87
2022-08-03T04:09:59.196Z,64.77
2022-08-03T04:12:09.943Z,63.73
2022-08-03T04:14:30.614Z,65.71
2022-08-03T04:16:43.159Z,65.65
2022-08-03T04:18:48.588Z,66.53
2022-08-03T04:20:50.593Z,63.34
2022-08-03T04:22:52.644Z,64.54
2022-08-03T04:25:04.319Z,65.79
2022-08-03T04:27:08.376Z,63.67
2022-08-03T04:29:10.974Z,63.47
2022-08-03T04:31:13.771Z,62.98
2022-08-03T04:33:16.409Z,62.82
2022-08-03T04:35:19.272Z,62.85
2022-08-03T04:37:48.032Z,65.15
2022-08-03T04:39:50.016Z,63.03
2022-08-03T04:42:04.384Z,63.83
2022-08-03T04:44:10.454Z,63.42
2022-08-03T04:46:12.457Z,63.02
2022-08-03T04:48:15.480Z,62.96
2022-08-03T04:50:21.368Z,62.82
2022-08-03T04:52:23.750Z,63.30
2022-08-03T04:54:25.720Z,63.17
2022-08-03T04:56:27.743Z,62.98
2022-08-03T04:58:29.742Z,63.29
2022-08-03T05:00:31.863Z,63.20
2022-08-03T05:02:35.125Z,63.13
2022-08-03T05:04:39.096Z,63.33
2022-08-03T05:06:48.159Z,62.99
2022-08-03T05:08:57.198Z,63.73
2022-08-03T05:10:59.576Z,63.35
2022-08-03T05:13:01.642Z,63.73
2022-08-03T05:15:04.216Z,63.65
2022-08-03T05:17:06.534Z,63.42
2022-08-03T05:19:08.557Z,63.63
2022-08-03T05:21:10.859Z,63.71
2022-08-03T05:23:12.861Z,64.16
2022-08-03T05:25:16.947Z,64.01
2022-08-03T05:27:21.161Z,64.32
2022-08-03T05:29:25.284Z,65.00
2022-08-03T05:31:27.314Z,64.47
2022-08-03T05:33:29.304Z,63.97
2022-08-03T05:35:55.787Z,64.05
2022-08-03T05:37:54.838Z,63.63
2022-08-03T05:39:57.039Z,64.13
2022-08-03T05:41:59.042Z,63.60
2022-08-03T05:44:01.791Z,63.45
2022-08-03T05:46:12.290Z,62.89
2022-08-03T05:48:15.062Z,62.83
2022-08-03T05:50:17.813Z,62.83
2022-08-03T05:52:19.819Z,62.96
2022-08-03T05:54:21.875Z,62.93
2022-08-03T05:56:43.918Z,62.68
2022-08-03T05:58:47.080Z,62.47
2022-08-03T06:00:49.407Z,62.42
2022-08-03T06:02:51.384Z,62.91
2022-08-03T06:04:53.381Z,62.59
2022-08-03T06:06:55.378Z,62.56
2022-08-03T06:08:57.512Z,62.41
2022-08-03T06:10:59.553Z,62.15
2022-08-03T06:13:01.602Z,62.74
2022-08-03T06:15:05.046Z,62.49
2022-08-03T06:17:07.029Z,62.29
2022-08-03T06:19:09.110Z,62.52
2022-08-03T06:21:15.675Z,62.47
2022-08-03T06:23:18.750Z,62.66
2022-08-03T06:25:21.182Z,62.63
2022-08-03T06:27:36.534Z,63.21
2022-08-03T06:29:39.496Z,62.15
2022-08-03T06:31:41.535Z,61.91
2022-08-03T06:34:30.808Z,61.42
2022-08-03T06:36:06.039Z,61.52
2022-08-03T06:38:08.967Z,61.99
2022-08-03T06:40:13.765Z,61.99
2022-08-03T06:42:16.306Z,61.47
2022-08-03T06:44:18.477Z,61.18
2022-08-03T06:46:20.696Z,60.94
2022-08-03T06:48:22.872Z,60.77
2022-08-03T06:50:26.256Z,60.79
2022-08-03T06:52:37.602Z,60.33
2022-08-03T06:54:40.717Z,60.31
2022-08-03T06:56:42.707Z,60.12
2022-08-03T06:58:44.747Z,59.69
2022-08-03T07:00:46.757Z,59.55
2022-08-03T07:02:48.858Z,59.06
2022-08-03T07:04:54.633Z,58.77
2022-08-03T07:06:56.795Z,58.88
2022-08-03T07:08:59.835Z,58.35
2022-08-03T07:11:01.898Z,58.10
2022-08-03T07:13:04.613Z,57.80
2022-08-03T07:15:07.299Z,57.47
2022-08-03T07:17:11.718Z,57.15
2022-08-03T07:19:14.072Z,56.15
2022-08-03T07:21:17.110Z,56.22
2022-08-03T07:23:19.463Z,55.95
2022-08-03T07:25:21.771Z,55.37
2022-08-03T07:27:23.819Z,54.59
2022-08-03T07:29:25.822Z,52.94
2022-08-03T07:31:27.957Z,53.23
2022-08-03T07:33:36.382Z,52.09
2022-08-03T07:35:38.543Z,51.82
2022-08-03T07:37:40.555Z,50.12
2022-08-03T07:39:56.081Z,49.33
2022-08-03T07:41:58.133Z,49.46
2022-08-03T07:44:00.130Z,49.26
2022-08-03T07:46:03.275Z,48.96
2022-08-03T07:48:08.834Z,48.95
2022-08-03T07:50:14.070Z,48.45
2022-08-03T07:52:34.725Z,48.44
2022-08-03T07:54:36.778Z,48.62
2022-08-03T07:56:38.879Z,47.72
2022-08-03T07:58:40.871Z,47.89
2022-08-03T08:00:43.008Z,46.80
2022-08-03T08:02:45.307Z,47.69
2022-08-03T08:04:47.267Z,47.76
2022-08-03T08:06:49.282Z,47.45
2022-08-03T08:08:51.303Z,47.19
2022-08-03T08:10:57.693Z,47.02
2022-08-03T08:13:00.768Z,46.41
2022-08-03T08:15:03.054Z,46.46
2022-08-03T08:17:07.344Z,46.07
2022-08-03T08:19:09.614Z,45.33
2022-08-03T08:21:14.759Z,45.44
2022-08-03T08:23:37.995Z,45.45
2022-08-03T08:25:44.918Z,45.46
2022-08-03T08:28:29.417Z,44.96
2022-08-03T08:30:14.894Z,43.55
2022-08-03T08:32:19.549Z,44.01
2022-08-03T08:34:21.788Z,44.89
2022-08-03T08:36:24.325Z,44.02
2022-08-03T08:38:26.273Z,43.34
2022-08-03T08:40:28.520Z,43.65
2022-08-03T08:42:31.723Z,43.29
2022-08-03T08:44:33.774Z,42.87
2022-08-03T08:46:35.775Z,42.22
2022-08-03T08:48:41.953Z,41.23
2022-08-03T08:50:45.085Z,41.57
2022-08-03T08:52:48.932Z,41.32
2022-08-03T08:54:50.949Z,39.50
2022-08-03T08:56:53.538Z,40.31
2022-08-03T08:58:59.315Z,40.16
2022-08-03T09:01:01.429Z,39.92
2022-08-03T09:03:03.483Z,40.23
2022-08-03T09:05:07.617Z,39.52
2022-08-03T09:07:19.556Z,40.09
2022-08-03T09:10:00.367Z,39.67
2022-08-03T09:12:00.347Z,38.54
2022-08-03T09:14:06.332Z,39.50
2022-08-03T09:16:19.164Z,38.51
2022-08-03T09:18:32.436Z,38.62
2022-08-03T09:20:36.878Z,39.15
2022-08-03T09:22:56.351Z,38.00
2022-08-03T09:25:23.432Z,36.75
2022-08-03T09:27:26.523Z,37.36
2022-08-03T09:29:32.179Z,37.01
2022-08-03T09:31:38.763Z,36.57
2022-08-03T09:33:49.610Z,35.79
2022-08-03T09:35:53.939Z,36.72
2022-08-03T09:38:16.819Z,36.04
2022-08-03T09:40:35.408Z,35.70
2022-08-03T09:42:40.529Z,36.17
2022-08-03T09:44:50.053Z,35.51
2022-08-03T09:46:58.431Z,35.71
2022-08-03T09:49:13.212Z,35.08
2022-08-03T09:51:33.150Z,35.26
2022-08-03T09:53:58.555Z,34.86
2022-08-03T09:56:33.598Z,34.29
2022-08-03T09:58:25.597Z,33.87
2022-08-03T10:00:27.575Z,35.17
2022-08-03T10:02:29.682Z,34.74
2022-08-03T10:04:31.689Z,34.77
2022-08-03T10:06:33.758Z,34.65
2022-08-03T10:08:35.787Z,34.28
2022-08-03T10:10:44.041Z,33.84
2022-08-03T10:12:48.187Z,33.65
2022-08-03T10:14:51.229Z,32.84
2022-08-03T10:16:53.241Z,32.99
2022-08-03T10:18:57.156Z,31.88
2022-08-03T10:21:07.770Z,32.04
2022-08-03T10:23:09.836Z,32.11
2022-08-03T10:25:14.602Z,30.81
2022-08-03T10:27:16.801Z,31.55
2022-08-03T10:29:22.539Z,31.05
2022-08-03T10:31:24.579Z,30.48
2022-08-03T10:33:49.744Z,30.23
2022-08-03T10:35:56.565Z,30.44
2022-08-03T10:38:03.685Z,30.02
2022-08-03T10:40:07.301Z,29.85
2022-08-03T10:42:14.679Z,28.32
2022-08-03T10:44:21.549Z,28.21
2022-08-03T10:46:23.582Z,28.27
2022-08-03T10:48:25.624Z,28.79
2022-08-03T10:50:28.439Z,28.44
2022-08-03T10:52:32.949Z,28.67
2022-08-03T10:55:07.585Z,27.14
2022-08-03T10:57:36.629Z,27.29
2022-08-03T10:59:45.837Z,28.13
2022-08-03T11:01:58.841Z,28.67
2022-08-03T11:04:06.153Z,28.70
2022-08-03T11:06:22.861Z,26.89
2022-08-03T11:08:34.836Z,26.97
2022-08-03T11:10:37.030Z,26.77
2022-08-03T11:12:39.085Z,26.67
2022-08-03T11:14:48.291Z,26.30
2022-08-03T11:17:06.142Z,26.36
2022-08-03T11:19:10.397Z,26.83
2022-08-03T11:21:12.839Z,26.68
2022-08-03T11:23:16.257Z,26.79
2022-08-03T11:25:54.205Z,26.82
2022-08-03T11:27:40.340Z,25.51
2022-08-03T11:30:10.368Z,24.64
2022-08-03T11:32:15.475Z,24.49
2022-08-03T11:34:20.007Z,24.02
2022-08-03T11:36:32.043Z,23.68
2022-08-03T11:38:34.627Z,23.49
2022-08-03T11:40:52.970Z,23.13
2022-08-03T11:42:55.003Z,24.61
2022-08-03T11:44:57.796Z,24.05
2022-08-03T11:46:59.834Z,23.67
2022-08-03T11:49:10.009Z,23.02
2022-08-03T11:51:40.668Z,23.54
2022-08-03T11:53:42.691Z,24.46
2022-08-03T11:55:48.888Z,23.59
2022-08-03T11:58:57.908Z,24.68
2022-08-03T12:00:26.574Z,23.88
2022-08-03T12:02:28.570Z,24.18
2022-08-03T12:04:30.527Z,23.84
2022-08-03T12:06:52.600Z,25.64
2022-08-03T12:08:54.578Z,25.90
2022-08-03T12:10:57.612Z,25.45
2022-08-03T12:13:00.534Z,25.06
2022-08-03T12:15:03.758Z,25.27
2022-08-03T12:17:05.840Z,24.38
2022-08-03T12:19:08.287Z,23.86
2022-08-03T12:21:11.229Z,24.16
2022-08-03T12:23:13.391Z,24.47
2022-08-03T12:25:39.558Z,24.11
2022-08-03T12:27:41.925Z,24.58
2022-08-03T12:29:44.154Z,24.93
2022-08-03T12:32:00.879Z,24.96
2022-08-03T12:34:05.158Z,25.77
2022-08-03T12:36:09.771Z,26.05
2022-08-03T12:38:13.010Z,25.56
2022-08-03T12:40:20.106Z,25.22
2022-08-03T12:42:31.933Z,24.43
2022-08-03T12:44:36.002Z,24.45
2022-08-03T12:46:47.479Z,24.28
2022-08-03T12:49:09.797Z,23.27
2022-08-03T12:51:11.896Z,24.02
2022-08-03T12:53:13.861Z,23.53
2022-08-03T12:55:20.422Z,23.62
2022-08-03T12:57:22.417Z,23.75
2022-08-03T12:59:32.239Z,24.18
2022-08-03T13:01:37.855Z,24.90
2022-08-03T13:03:57.082Z,24.33
2022-08-03T13:05:59.041Z,23.52
2022-08-03T13:08:01.129Z,23.60
2022-08-03T13:10:07.872Z,24.16
2022-08-03T13:12:15.700Z,23.90
2022-08-03T13:14:19.941Z,24.02
2022-08-03T13:16:22.755Z,24.24
2022-08-03T13:18:24.735Z,23.29
2022-08-03T13:20:26.743Z,22.76
2022-08-03T13:22:33.516Z,23.12
2022-08-03T13:24:35.496Z,22.43
2022-08-03T13:26:37.498Z,22.58
2022-08-03T13:28:39.990Z,22.26
2022-08-03T13:30:41.978Z,21.90
2022-08-03T13:32:43.986Z,22.09
2022-08-03T13:34:46.031Z,22.79
2022-08-03T13:37:07.994Z,22.73
2022-08-03T13:39:10.066Z,22.52
2022-08-03T13:41:16.221Z,22.23
2022-08-03T13:43:20.978Z,22.87
2022-08-03T13:45:24.357Z,22.63
2022-08-03T13:47:26.918Z,22.90
2022-08-03T13:49:30.022Z,21.95
2022-08-03T13:51:32.096Z,22.10
2022-08-03T13:53:34.150Z,22.61
2022-08-03T13:55:36.227Z,22.53
2022-08-03T13:58:04.085Z,21.80
2022-08-03T14:00:00.213Z,22.49
2022-08-03T14:02:02.239Z,22.27
2022-08-03T14:04:04.457Z,22.12
2022-08-03T14:06:06.489Z,21.56
2022-08-03T14:08:08.628Z,21.64
2022-08-03T14:10:10.980Z,21.38
2022-08-03T14:12:13.037Z,20.99
2022-08-03T14:14:15.105Z,21.61
2022-08-03T14:16:17.150Z,21.42
2022-08-03T14:18:29.253Z,20.47
2022-08-03T14:20:48.805Z,20.44
2022-08-03T14:22:54.617Z,19.93
2022-08-03T14:24:57.840Z,20.46
2022-08-03T14:27:08.631Z,20.61
2022-08-03T14:29:11.307Z,21.59
2022-08-03T14:32:09.287Z,22.25
2022-08-03T14:33:35.307Z,22.59
2022-08-03T14:35:37.363Z,21.92
2022-08-03T14:37:39.370Z,21.93
2022-08-03T14:42:03.445Z,21.88
2022-08-03T14:44:05.581Z,21.68
2022-08-03T14:46:07.629Z,21.68
2022-08-03T14:50:32.846Z,22.32
2022-08-03T14:50:41.934Z,22.74
2022-08-03T14:52:47.610Z,22.95
2022-08-03T14:54:49.565Z,22.70
2022-08-03T14:56:51.764Z,23.34
2022-08-03T14:58:53.773Z,22.61
2022-08-03T15:00:55.765Z,23.07
2022-08-03T15:02:57.788Z,23.48
2022-08-03T15:04:59.763Z,23.84
2022-08-03T15:07:01.769Z,23.43
2022-08-03T15:09:21.422Z,23.18
2022-08-03T15:11:25.217Z,23.18
2022-08-03T15:13:27.871Z,23.33
2022-08-03T15:15:29.880Z,23.55
2022-08-03T15:17:31.813Z,23.75
2022-08-03T15:20:00.985Z,23.85
2022-08-03T15:21:57.092Z,24.10
2022-08-03T15:24:02.935Z,23.96
2022-08-03T15:26:32.632Z,24.08
2022-08-03T15:28:26.860Z,23.37
2022-08-03T15:30:28.778Z,23.50
2022-08-03T15:32:30.772Z,24.04
2022-08-03T15:34:32.707Z,24.49
2022-08-03T15:36:34.726Z,24.17
2022-08-03T15:38:36.738Z,24.01
2022-08-03T15:40:38.903Z,24.24
2022-08-03T15:42:40.909Z,24.24
2022-08-03T15:44:42.842Z,24.27
2022-08-03T15:46:44.819Z,24.12
2022-08-03T15:48:46.895Z,24.28
2022-08-03T15:50:48.807Z,24.31
2022-08-03T15:52:50.850Z,24.85
2022-08-03T15:54:52.807Z,24.95
2022-08-03T15:56:54.823Z,25.50
2022-08-03T15:59:12.011Z,26.08
2022-08-03T16:01:19.683Z,25.78
2022-08-03T16:03:22.057Z,26.01
2022-08-03T16:05:24.137Z,26.17
2022-08-03T16:08:03.914Z,26.17
2022-08-03T16:10:07.461Z,25.54
2022-08-03T16:12:16.034Z,25.40
2022-08-03T16:14:32.224Z,25.89
2022-08-03T16:16:40.920Z,26.26
2022-08-03T16:18:42.973Z,27.32
2022-08-03T16:20:45.425Z,26.56
2022-08-03T16:22:48.543Z,27.25
2022-08-03T16:24:51.406Z,27.88
2022-08-03T16:27:04.699Z,28.82
2022-08-03T16:29:22.172Z,28.42
2022-08-03T16:31:27.334Z,28.73
2022-08-03T16:33:29.412Z,28.69
2022-08-03T16:35:31.414Z,28.57
2022-08-03T16:37:38.768Z,28.95
2022-08-03T16:39:41.425Z,29.15
2022-08-03T16:41:53.575Z,29.08
2022-08-03T16:44:06.687Z,29.10
2022-08-03T16:46:11.862Z,29.21
2022-08-03T16:48:15.213Z,29.01
2022-08-03T16:50:19.895Z,29.02
2022-08-03T16:52:22.899Z,29.37
2022-08-03T16:54:25.025Z,29.46
2022-08-03T16:56:30.088Z,29.71
2022-08-03T16:58:41.194Z,29.72
2022-08-03T17:00:46.309Z,29.66
2022-08-03T17:02:48.552Z,29.71
2022-08-03T17:04:51.581Z,30.12
2022-08-03T17:06:53.667Z,29.89
2022-08-03T17:08:55.703Z,30.71
2022-08-03T17:10:57.745Z,30.13
2022-08-03T17:12:59.768Z,30.54
2022-08-03T17:15:01.784Z,30.89
2022-08-03T17:17:16.175Z,31.29
2022-08-03T17:19:18.754Z,31.03
2022-08-03T17:21:29.462Z,31.74
2022-08-03T17:23:58.723Z,32.25
2022-08-03T17:26:02.072Z,31.80
2022-08-03T17:28:48.531Z,32.08
2022-08-03T17:30:48.345Z,31.94
2022-08-03T17:32:56.587Z,32.10
2022-08-03T17:34:59.769Z,32.35
2022-08-03T17:37:04.456Z,32.75
2022-08-03T17:39:07.028Z,32.40
2022-08-03T17:41:11.279Z,32.58
2022-08-03T17:44:13.083Z,33.06
2022-08-03T17:45:42.213Z,32.66
2022-08-03T17:47:57.747Z,33.14
2022-08-03T17:50:00.105Z,33.06
2022-08-03T17:52:06.755Z,33.39
2022-08-03T17:54:35.822Z,33.49
2022-08-03T17:57:21.976Z,33.90
2022-08-03T17:59:54.964Z,34.20
2022-08-03T18:02:47.449Z,33.91
2022-08-03T18:05:02.215Z,34.40
2022-08-03T18:07:18.990Z,33.92
2022-08-03T18:10:06.441Z,33.89
2022-08-03T18:11:45.988Z,34.47
2022-08-03T18:14:27.998Z,35.08
2022-08-03T18:16:45.961Z,35.03
2022-08-03T18:18:53.972Z,34.25
2022-08-03T18:20:58.520Z,34.90
2022-08-03T18:23:04.814Z,34.81
2022-08-03T18:25:08.254Z,34.82
2022-08-03T18:27:10.998Z,34.91
2022-08-03T18:29:13.604Z,34.76
2022-08-03T18:32:00.231Z,35.23
2022-08-03T18:34:16.307Z,35.57
2022-08-03T18:36:01.881Z,35.19
2022-08-03T18:38:05.037Z,35.26
2022-08-03T18:40:12.595Z,35.56
2022-08-03T18:42:25.604Z,35.86
2022-08-03T18:44:38.108Z,36.38
2022-08-03T18:47:17.025Z,37.18
2022-08-03T18:49:18.990Z,36.75
2022-08-03T18:54:51.713Z,37.71
2022-08-03T18:56:55.520Z,37.39
2022-08-03T18:59:16.530Z,37.88
2022-08-03T19:01:59.804Z,37.80
2022-08-03T19:04:13.764Z,38.09
2022-08-03T19:06:21.255Z,38.27
2022-08-03T19:08:46.050Z,38.73
2022-08-03T19:10:57.725Z,38.44
2022-08-03T19:13:14.065Z,38.85
2022-08-03T19:15:16.160Z,38.22
2022-08-03T19:17:23.276Z,38.43
2022-08-03T19:19:43.984Z,38.32
2022-08-03T19:21:46.609Z,38.59
2022-08-03T19:23:51.284Z,38.78
2022-08-03T19:25:57.483Z,38.63
2022-08-03T19:27:59.463Z,38.94
2022-08-03T19:30:14.244Z,38.94
2022-08-03T19:32:24.485Z,39.24
2022-08-03T19:34:27.172Z,40.05
2022-08-03T19:36:29.659Z,40.25
2022-08-03T19:38:31.760Z,39.05
2022-08-03T19:40:35.409Z,39.19
2022-08-03T19:42:37.411Z,39.68
2022-08-03T19:44:43.682Z,39.79
2022-08-03T19:46:58.272Z,40.47
2022-08-03T19:49:01.075Z,39.90
2022-08-03T19:51:12.293Z,39.76
2022-08-03T19:53:14.999Z,40.35
2022-08-03T19:55:17.696Z,40.12
2022-08-03T19:57:22.313Z,40.20
2022-08-03T19:59:24.602Z,40.34
2022-08-03T20:01:28.531Z,41.00
2022-08-03T20:03:42.909Z,40.84
2022-08-03T20:05:52.337Z,41.23
2022-08-03T20:08:00.254Z,41.40
2022-08-03T20:10:04.890Z,41.11
2022-08-03T20:12:09.211Z,41.34
2022-08-03T20:14:20.723Z,41.61
2022-08-03T20:16:28.380Z,41.63
2022-08-03T20:18:30.802Z,42.03
2022-08-03T20:20:36.381Z,42.34
2022-08-03T20:22:43.272Z,42.94
2022-08-03T20:24:52.742Z,42.09
2022-08-03T20:26:57.929Z,42.40
2022-08-03T20:29:10.161Z,43.20
2022-08-03T20:31:12.427Z,42.33
2022-08-03T20:33:18.383Z,42.41
2022-08-03T20:35:21.178Z,42.64
2022-08-03T20:37:23.189Z,43.11
2022-08-03T20:39:25.377Z,42.90
2022-08-03T20:41:30.605Z,44.06
2022-08-03T20:43:33.911Z,43.52
2022-08-03T20:45:58.355Z,43.93
2022-08-03T20:47:58.130Z,44.11
2022-08-03T20:50:00.180Z,43.92
2022-08-03T20:52:02.162Z,44.01
2022-08-03T20:54:09.656Z,44.33
2022-08-03T20:56:26.882Z,44.24
2022-08-03T20:58:29.326Z,44.26
2022-08-03T21:00:31.377Z,44.47
2022-08-03T21:02:34.467Z,44.64
2022-08-03T21:04:41.731Z,44.92
2022-08-03T21:06:54.178Z,44.81
2022-08-03T21:09:04.239Z,46.08
2022-08-03T21:11:11.757Z,45.84
2022-08-03T21:13:08.788Z,37.10
2022-08-03T21:13:24.467Z,46.92
2022-08-03T21:16:13.136Z,46.43
2022-08-03T21:17:53.089Z,46.15
2022-08-03T21:19:55.118Z,46.42
2022-08-03T21:21:57.312Z,46.12
2022-08-03T21:24:00.237Z,46.03
2022-08-03T21:26:02.239Z,46.23
2022-08-03T21:28:04.312Z,46.58
2022-08-03T21:30:08.963Z,46.73
2022-08-03T21:32:14.078Z,46.62
2022-08-03T21:34:21.319Z,47.60
2022-08-03T21:36:24.616Z,46.79
2022-08-03T21:38:29.874Z,46.57
2022-08-03T21:40:32.406Z,46.84
2022-08-03T21:42:34.625Z,46.79
2022-08-03T21:44:37.088Z,47.24
2022-08-03T21:46:42.151Z,48.18
2022-08-03T21:48:44.883Z,47.60
2022-08-03T21:50:46.889Z,47.42
2022-08-03T21:52:49.227Z,48.34
2022-08-03T21:54:51.411Z,47.49
2022-08-03T21:56:53.414Z,47.57
2022-08-03T21:59:06.773Z,48.67
2022-08-03T22:01:09.171Z,48.17
2022-08-03T22:03:12.107Z,48.01
2022-08-03T22:05:19.598Z,48.50
2022-08-03T22:07:31.555Z,48.40
2022-08-03T22:09:35.366Z,48.32
2022-08-03T22:11:37.794Z,48.45
2022-08-03T22:13:44.261Z,48.96
2022-08-03T22:15:47.804Z,48.86
2022-08-03T22:17:54.553Z,48.88
2022-08-03T22:19:58.577Z,48.71
2022-08-03T22:22:00.733Z,49.32
2022-08-03T22:24:02.733Z,49.50
2022-08-03T22:26:04.874Z,50.11
2022-08-03T22:28:09.750Z,50.53
2022-08-03T22:30:14.732Z,50.36
2022-08-03T22:32:16.891Z,49.51
2022-08-03T22:34:26.472Z,50.67
2022-08-03T22:36:29.048Z,49.97
2022-08-03T22:38:31.083Z,50.08
2022-08-03T22:40:33.743Z,50.61
2022-08-03T22:42:36.132Z,50.44
2022-08-03T22:44:38.177Z,50.62
2022-08-03T22:46:40.428Z,50.19
2022-08-03T22:48:42.579Z,50.49
2022-08-03T22:50:45.498Z,51.36
2022-08-03T22:52:47.555Z,50.80
2022-08-03T22:54:49.721Z,50.88
2022-08-03T22:56:52.061Z,51.28
2022-08-03T22:58:54.045Z,51.46
2022-08-03T23:01:04.933Z,52.34
2022-08-03T23:03:06.972Z,51.61
2022-08-03T23:05:59.620Z,52.79
2022-08-03T23:07:39.088Z,51.97
2022-08-03T23:09:41.906Z,51.87
2022-08-03T23:11:46.010Z,52.66
2022-08-03T23:13:50.210Z,51.73
2022-08-03T23:15:56.210Z,53.63
2022-08-03T23:17:58.883Z,52.61
2022-08-03T23:20:08.040Z,54.42
2022-08-03T23:22:29.499Z,53.01
2022-08-03T23:24:38.563Z,54.63
2022-08-03T23:26:40.531Z,53.53
2022-08-03T23:28:45.499Z,54.19
2022-08-03T23:30:48.725Z,53.11
2022-08-03T23:32:54.651Z,53.27
2022-08-03T23:35:19.623Z,54.02
2022-08-03T23:37:21.814Z,53.65
2022-08-03T23:39:24.023Z,53.47
2022-08-03T23:41:26.098Z,54.01
2022-08-03T23:43:52.396Z,55.64
2022-08-03T23:45:56.938Z,53.92
2022-08-03T23:47:58.931Z,54.75
2022-08-03T23:50:01.130Z,54.40
2022-08-03T23:52:13.254Z,55.79
2022-08-03T23:54:45.886Z,55.88
2022-08-03T23:57:05.378Z,55.66
2022-08-03T23:59:30.602Z,56.07
